Time;durP1;ratioP1;P1;durP2;ratioP2;P2;SDS_P1;SDS_P2;PMS_P1;PMS_P2;Temp;Humidity;BMP_temperature;BMP_pressure;BME280_temperature;BME280_humidity;BME280_pressure;Samples;Min_cycle;Max_cycle;Signal;HPM_P1;HPM_P2
2023/02/17 05:43:28;;;;;;;;;6.50;6.50;;;;;12.77;100.00;102340.81;5450840;23;50010;-70
2023/02/17 05:45:53;;;;;;;;;6.75;6.00;;;;;12.16;100.00;102233.13;4913065;28;50180;-74
2023/02/17 05:48:19;;;;;;;;;6.75;5.25;;;;;13.23;100.00;102421.63;4914667;28;49818;-67
2023/02/17 05:50:44;;;;;;;;;7.00;7.00;;;;;13.34;100.00;102446.63;4915138;28;49829;-67
2023/02/17 05:53:10;;;;;;;;;7.25;7.25;;;;;13.14;100.00;102391.41;4914901;28;49999;-67
2023/02/17 05:55:35;;;;;;;;;3.00;3.00;;;;;12.46;100.00;102280.81;4914851;28;49762;-67
2023/02/17 05:58:01;;;;;;;;;8.25;4.25;;;;;13.40;100.00;102436.28;4914976;28;49736;-67
2023/02/17 06:00:27;;;;;;;;;8.50;6.75;;;;;13.38;100.00;102443.25;4914113;28;49719;-69
2023/02/17 06:02:53;;;;;;;;;6.25;4.50;;;;;13.37;100.00;102446.75;4916921;28;50547;-69
2023/02/17 06:05:18;;;;;;;;;5.75;5.50;;;;;12.85;100.00;102370.97;4925458;28;49717;-70
2023/02/17 06:07:43;;;;;;;;;5.00;5.00;;;;;12.97;100.00;102375.81;4932654;28;49952;-69
2023/02/17 06:10:09;;;;;;;;;6.00;6.00;;;;;12.63;100.00;102311.28;4930621;28;49567;-68
2023/02/17 06:12:35;;;;;;;;;7.50;6.00;;;;;12.90;100.00;102388.75;4923022;28;50196;-68
2023/02/17 06:15:00;;;;;;;;;5.75;5.75;;;;;13.27;100.00;102429.69;4922766;28;49949;-68
2023/02/17 06:17:25;;;;;;;;;4.00;4.00;;;;;13.21;100.00;102415.38;4914370;28;49942;-68
2023/02/17 06:19:51;;;;;;;;;4.75;4.75;;;;;13.29;100.00;102448.19;4919175;28;49860;-68
2023/02/17 06:22:16;;;;;;;;;6.50;5.00;;;;;13.22;100.00;102436.53;4921216;28;49632;-70
2023/02/17 06:24:42;;;;;;;;;6.00;6.00;;;;;13.14;100.00;102416.88;4914158;28;49817;-65
2023/02/17 06:27:07;;;;;;;;;7.00;7.00;;;;;12.51;100.00;102322.28;4921698;28;50638;-71
2023/02/17 06:29:33;;;;;;;;;4.50;4.50;;;;;13.25;100.00;102443.66;4914849;28;50245;-70
2023/02/17 06:31:59;;;;;;;;;5.75;5.50;;;;;12.60;100.00;102332.28;4918652;28;50690;-71
2023/02/17 06:34:24;;;;;;;;;6.00;5.00;;;;;13.00;100.00;102407.53;4914818;28;49977;-67
2023/02/17 06:36:49;;;;;;;;;5.50;5.00;;;;;12.70;100.00;102360.75;4912449;28;49870;-67
2023/02/17 06:39:15;;;;;;;;;7.25;4.75;;;;;12.60;100.00;102333.16;4914403;28;49937;-69
2023/02/17 06:41:41;;;;;;;;;4.00;4.00;;;;;13.17;100.00;102443.34;4914090;28;49719;-64
2023/02/17 06:44:07;;;;;;;;;8.25;6.75;;;;;12.99;100.00;102433.00;4914056;28;50571;-64
2023/02/17 06:46:32;;;;;;;;;5.25;5.25;;;;;13.17;100.00;102457.41;4914095;28;49652;-66
2023/02/17 06:48:58;;;;;;;;;4.50;4.50;;;;;12.66;100.00;102377.31;4914582;28;50700;-66
2023/02/17 06:51:24;;;;;;;;;7.25;5.75;;;;;12.82;100.00;102402.47;4914055;28;50716;-74
2023/02/17 06:53:49;;;;;;;;;5.25;5.25;;;;;12.36;100.00;102328.72;4913923;28;49907;-65
2023/02/17 06:56:15;;;;;;;;;8.75;6.50;;;;;13.05;100.00;102458.72;4913954;28;49665;-64
2023/02/17 06:58:40;;;;;;;;;10.00;6.50;;;;;12.49;100.00;102368.75;4914011;28;50001;-68
2023/02/17 07:01:08;;;;;;;;;8.25;8.25;;;;;12.75;100.00;102418.91;4913803;28;50871;-68
2023/02/17 07:03:33;;;;;;;;;8.00;5.00;;;;;12.58;100.00;102362.94;4913819;28;49786;-67
2023/02/17 07:05:59;;;;;;;;;6.00;6.00;;;;;13.27;100.00;102471.88;4913387;28;49902;-68
2023/02/17 07:08:24;;;;;;;;;5.00;5.00;;;;;13.26;100.00;102480.63;4898209;28;49894;-67
2023/02/17 07:10:50;;;;;;;;;5.50;3.75;;;;;13.51;100.00;102510.53;4876424;28;50756;-66
2023/02/17 07:13:16;;;;;;;;;6.00;4.00;;;;;13.21;100.00;102444.38;4893882;28;49878;-66
2023/02/17 07:15:41;;;;;;;;;6.25;5.00;;;;;13.75;100.00;102519.34;4895351;28;49794;-66
2023/02/17 07:18:07;;;;;;;;;4.50;4.50;;;;;13.49;100.00;102455.09;4893033;28;49992;-67
2023/02/17 07:20:32;;;;;;;;;5.25;4.75;;;;;13.70;100.00;102495.47;4892615;28;50433;-68
2023/02/17 07:23:00;;;;;;;;;7.75;7.75;;;;;13.81;100.00;102503.75;4887522;28;50866;-66
2023/02/17 07:25:26;;;;;;;;;5.50;4.50;;;;;13.42;100.00;102443.44;4891796;28;51009;-68
2023/02/17 07:27:51;;;;;;;;;4.75;4.75;;;;;13.08;100.00;102393.78;4897710;28;50001;-68
2023/02/17 07:30:17;;;;;;;;;5.75;5.75;;;;;13.79;100.00;102513.31;4894727;28;51144;-68
2023/02/17 07:32:43;;;;;;;;;2.25;1.50;;;;;13.36;100.00;102456.41;4894128;28;49893;-67
2023/02/17 07:35:08;;;;;;;;;8.50;8.50;;;;;13.67;100.00;102511.16;4890908;28;50822;-67
2023/02/17 07:37:34;;;;;;;;;4.25;3.75;;;;;13.78;100.00;102534.41;4891660;28;49714;-67
2023/02/17 07:39:59;;;;;;;;;7.00;6.75;;;;;13.58;100.00;102484.44;4890139;28;49763;-71
2023/02/17 07:42:27;;;;;;;;;3.50;3.50;;;;;13.12;100.00;102419.47;4896119;28;49866;-66
2023/02/17 07:44:53;;;;;;;;;11.25;7.75;;;;;12.91;100.00;102381.72;4895672;28;49892;-67
2023/02/17 07:47:18;;;;;;;;;4.00;4.00;;;;;13.76;100.00;102536.97;4899851;28;50248;-66
2023/02/17 07:49:43;;;;;;;;;10.50;7.25;;;;;13.67;100.00;102529.63;4901777;28;50457;-66
2023/02/17 07:52:09;;;;;;;;;5.75;5.50;;;;;13.60;100.00;102524.06;4888033;28;50199;-67
2023/02/17 07:54:34;;;;;;;;;5.25;5.25;;;;;13.39;100.00;102468.78;4890796;28;49969;-68
2023/02/17 07:57:00;;;;;;;;;7.00;4.75;;;;;13.43;100.00;102484.78;4891283;28;50100;-66
2023/02/17 07:59:25;;;;;;;;;5.75;4.25;;;;;13.42;100.00;102477.72;4889156;28;50412;-70
2023/02/17 08:01:51;;;;;;;;;4.25;4.25;;;;;13.69;100.00;102524.41;4893296;28;50151;-68
2023/02/17 08:04:16;;;;;;;;;5.50;5.50;;;;;13.45;100.00;102487.50;4891131;28;49773;-68
2023/02/17 08:06:42;;;;;;;;;6.50;4.00;;;;;13.39;100.00;102452.97;4886680;28;49855;-67
2023/02/17 08:14:39;;;;;;;;;6.50;5.50;;;;;13.93;100.00;102566.63;4891112;28;50088;-67
2023/02/17 08:17:05;;;;;;;;;4.00;4.00;;;;;13.90;100.00;102541.03;4891647;28;49835;-67
2023/02/17 08:19:30;;;;;;;;;5.75;5.75;;;;;12.84;100.00;102340.19;4889163;28;51217;-69
2023/02/17 08:21:55;;;;;;;;;6.25;6.25;;;;;13.94;100.00;102540.28;4894114;28;49794;-68
2023/02/17 08:24:21;;;;;;;;;9.00;6.50;;;;;13.92;100.00;102570.13;4892136;28;49869;-67
2023/02/17 08:26:48;;;;;;;;;5.00;4.00;;;;;13.75;100.00;102520.25;4885261;28;49810;-68
2023/02/17 08:29:13;;;;;;;;;5.00;5.00;;;;;13.85;100.00;102518.84;4886528;28;51516;-68
2023/02/17 08:31:40;;;;;;;;;10.75;5.25;;;;;13.64;100.00;102479.38;4894398;28;51026;-68
2023/02/17 08:34:07;;;;;;;;;5.75;5.00;;;;;14.03;100.00;102545.88;4903035;28;49874;-67
2023/02/17 08:36:33;;;;;;;;;5.00;5.00;;;;;13.66;100.00;102467.13;4911136;28;49807;-68
2023/02/17 08:38:59;;;;;;;;;5.75;4.25;;;;;13.80;100.00;102504.59;4904001;28;49756;-68
2023/02/17 08:41:29;;;;;;;;;6.25;6.25;;;;;13.82;100.00;102494.97;4905679;28;49758;-67
2023/02/17 08:43:56;;;;;;;;;7.00;6.00;;;;;13.35;100.00;102425.59;4906983;28;49869;-67
2023/02/17 08:46:22;;;;;;;;;6.75;6.00;;;;;14.17;100.00;102559.56;4912300;28;49728;-68
2023/02/17 08:48:48;;;;;;;;;7.00;6.00;;;;;13.58;100.00;102450.13;4912116;28;50666;-69
2023/02/17 08:51:16;;;;;;;;;5.50;5.50;;;;;13.48;100.00;102426.00;4911795;28;49924;-68
2023/02/17 08:53:42;;;;;;;;;6.00;4.75;;;;;14.29;100.00;102559.09;4911729;28;50202;-68
2023/02/17 08:56:08;;;;;;;;;4.00;4.00;;;;;13.62;100.00;102454.69;4911300;28;49596;-68
2023/02/17 08:58:35;;;;;;;;;6.00;5.00;;;;;13.18;100.00;102418.75;4911118;28;50941;-68
2023/02/17 09:01:01;;;;;;;;;3.25;3.25;;;;;13.53;100.00;102469.31;4914422;28;49768;-67
2023/02/17 09:03:26;;;;;;;;;3.00;3.00;;;;;14.32;100.00;102562.75;4910952;28;49810;-69
2023/02/17 09:05:55;;;;;;;;;7.75;6.75;;;;;14.28;100.00;102563.50;4909686;28;49568;-68
2023/02/17 09:08:22;;;;;;;;;3.50;3.50;;;;;14.31;100.00;102570.63;4902315;28;50918;-68
2023/02/17 09:10:50;;;;;;;;;4.25;4.00;;;;;13.99;100.00;102500.81;4915134;28;50256;-68
2023/02/17 09:13:17;;;;;;;;;4.25;4.25;;;;;14.04;100.00;102516.00;4914920;28;49877;-67
2023/02/17 09:15:43;;;;;;;;;6.75;6.00;;;;;13.92;100.00;102477.72;4915478;28;49962;-67
2023/02/17 09:18:08;;;;;;;;;3.50;3.25;;;;;13.79;100.00;102442.06;4915174;28;51300;-67
2023/02/17 09:20:35;;;;;;;;;5.50;4.00;;;;;13.88;100.00;102437.09;4915092;28;49861;-68
2023/02/17 09:23:00;;;;;;;;;4.75;4.75;;;;;14.46;100.00;102522.69;4915270;28;49635;-68
2023/02/17 09:25:26;;;;;;;;;6.25;5.75;;;;;14.40;100.00;102511.91;4913031;28;50181;-67
2023/02/17 09:27:51;;;;;;;;;4.00;3.25;;;;;14.53;100.00;102498.28;4914530;28;50646;-68
2023/02/17 09:30:17;;;;;;;;;2.75;2.50;;;;;14.70;100.00;102531.44;4915066;28;49709;-67
2023/02/17 09:32:42;;;;;;;;;6.50;4.50;;;;;14.45;100.00;102478.63;4909097;28;49604;-68
2023/02/17 09:35:12;;;;;;;;;3.00;3.00;;;;;14.43;100.00;102446.84;4915146;28;49999;-68
2023/02/17 09:37:37;;;;;;;;;2.50;2.50;;;;;15.00;100.00;102531.50;4913633;28;49988;-67
2023/02/17 09:40:04;;;;;;;;;2.75;2.00;;;;;15.25;100.00;102551.66;4914830;28;49857;-67
2023/02/17 09:42:33;;;;;;;;;4.25;4.25;;;;;15.36;100.00;102550.22;4914939;28;49894;-68
2023/02/17 09:45:03;;;;;;;;;4.00;2.50;;;;;15.56;100.00;102564.03;4914875;28;50167;-71
2023/02/17 09:47:37;;;;;;;;;5.50;3.25;;;;;14.93;100.00;102450.16;4912459;28;50634;-68
2023/02/17 09:50:12;;;;;;;;;3.75;3.00;;;;;15.30;100.00;102490.94;4913883;28;49940;-67
2023/02/17 09:52:52;;;;;;;;;2.75;2.75;;;;;15.20;100.00;102479.19;4914846;28;49755;-67
2023/02/17 09:55:25;;;;;;;;;4.50;2.75;;;;;15.13;100.00;102474.56;4915092;28;49941;-69
2023/02/17 09:57:58;;;;;;;;;4.00;4.00;;;;;15.63;100.00;102571.34;4911391;28;50091;-67
2023/02/17 10:00:31;;;;;;;;;5.00;4.00;;;;;14.88;100.00;102436.81;4910878;28;49691;-67
2023/02/17 10:03:04;;;;;;;;;3.75;2.50;;;;;15.15;100.00;102489.66;4906656;28;49803;-67
2023/02/17 10:05:37;;;;;;;;;2.00;2.00;;;;;15.02;100.00;102489.22;4912175;28;49936;-67
2023/02/17 10:08:08;;;;;;;;;2.00;2.00;;;;;15.63;100.00;102581.00;4909905;28;49929;-68
2023/02/17 10:10:43;;;;;;;;;4.00;2.75;;;;;15.53;100.00;102549.81;4914314;28;49935;-67
2023/02/17 10:13:09;;;;;;;;;5.00;5.00;;;;;15.54;100.00;102544.59;4914212;28;49898;-68
2023/02/17 10:15:39;;;;;;;;;3.75;3.75;;;;;15.77;100.00;102599.97;4911340;28;49857;-70
2023/02/17 10:18:38;;;;;;;;;2.50;2.50;;;;;15.82;100.00;102574.50;4912831;28;49983;-68
2023/02/17 10:21:10;;;;;;;;;3.50;3.50;;;;;15.86;100.00;102584.34;4909992;28;49864;-67
2023/02/17 10:23:36;;;;;;;;;4.25;3.00;;;;;15.46;100.00;102507.31;4914362;28;49846;-68
2023/02/17 10:26:20;;;;;;;;;2.00;2.00;;;;;15.90;100.00;102579.16;4914451;28;50202;-69
2023/02/17 10:29:00;;;;;;;;;2.75;2.75;;;;;15.60;100.00;102526.25;4913966;28;51046;-68
2023/02/17 10:31:26;;;;;;;;;3.50;3.00;;;;;15.91;100.00;102578.28;4914099;28;49752;-68
2023/02/17 10:34:04;;;;;;;;;2.00;2.00;;;;;15.70;100.00;102568.00;4909863;28;49724;-69
2023/02/17 10:36:58;;;;;;;;;1.00;1.00;;;;;15.78;100.00;102577.94;4906011;28;50219;-68
2023/02/17 10:39:45;;;;;;;;;5.50;3.25;;;;;15.97;100.00;102567.00;4913047;28;49977;-68
2023/02/17 10:42:31;;;;;;;;;2.75;2.00;;;;;16.05;100.00;102577.81;4908373;28;49746;-67
2023/02/17 10:45:04;;;;;;;;;4.25;3.00;;;;;16.07;100.00;102578.72;4907878;28;49815;-67
2023/02/17 10:47:30;;;;;;;;;3.50;3.50;;;;;15.39;100.00;102454.16;4907991;28;49993;-68
2023/02/17 10:50:00;;;;;;;;;3.25;3.00;;;;;16.17;100.00;102601.97;4909866;28;51711;-68
2023/02/17 10:52:37;;;;;;;;;3.00;3.00;;;;;16.22;100.00;102579.16;4911507;28;49767;-68
2023/02/17 10:55:04;;;;;;;;;3.00;2.50;;;;;15.76;100.00;102492.25;4904933;28;49801;-67
2023/02/17 10:57:37;;;;;;;;;3.00;3.00;;;;;16.24;100.00;102580.09;4912427;28;49849;-68
2023/02/17 11:00:05;;;;;;;;;4.00;3.25;;;;;15.73;100.00;102493.09;4912519;28;50029;-67
2023/02/17 11:02:49;;;;;;;;;1.50;1.50;;;;;15.79;100.00;102465.84;4907952;28;49952;-67
2023/02/17 11:05:24;;;;;;;;;0.00;0.00;;;;;16.24;100.00;102532.38;4905866;28;49722;-68
2023/02/17 11:08:12;;;;;;;;;3.00;3.00;;;;;16.33;100.00;102560.88;4913737;28;49824;-67
2023/02/17 11:10:40;;;;;;;;;1.75;1.75;;;;;15.95;100.00;102489.25;4913441;28;50986;-67
2023/02/17 11:13:31;;;;;;;;;2.00;2.00;;;;;16.04;100.00;102513.31;4913096;28;49814;-67
2023/02/17 11:15:57;;;;;;;;;2.25;2.25;;;;;16.45;100.00;102607.16;4913366;28;49851;-67
2023/02/17 11:18:29;;;;;;;;;2.00;2.00;;;;;16.03;100.00;102509.78;4913649;28;49863;-67
2023/02/17 11:21:07;;;;;;;;;2.50;1.25;;;;;16.51;100.00;102585.22;4916175;28;51224;-71
2023/02/17 11:23:33;;;;;;;;;3.25;3.25;;;;;16.57;100.00;102572.97;4910895;28;49858;-65
2023/02/17 11:26:24;;;;;;;;;4.50;3.00;;;;;16.52;100.00;102601.16;4909605;28;49762;-67
2023/02/17 11:28:49;;;;;;;;;2.00;2.00;;;;;16.64;100.00;102582.00;4913551;28;50724;-67
2023/02/17 11:31:22;;;;;;;;;2.00;2.00;;;;;15.57;100.00;102412.31;4929548;28;50572;-67
2023/02/17 11:33:47;;;;;;;;;3.00;3.00;;;;;16.53;100.00;102535.78;4930476;28;49661;-67
2023/02/17 11:36:27;;;;;;;;;2.00;2.00;;;;;15.63;100.00;102406.28;4922641;28;49720;-65
2023/02/17 11:38:52;;;;;;;;;3.75;3.75;;;;;16.31;100.00;102482.22;4922047;28;50032;-66
2023/02/17 11:41:19;;;;;;;;;2.00;2.00;;;;;16.22;100.00;102470.50;4923503;28;50230;-73
2023/02/17 11:43:57;;;;;;;;;1.75;1.75;;;;;16.72;100.00;102553.94;4918350;28;49782;-69
2023/02/17 11:46:43;;;;;;;;;1.50;1.50;;;;;17.00;100.00;102575.81;4929821;28;49350;-65
2023/02/17 11:49:37;;;;;;;;;2.75;2.75;;;;;16.92;100.00;102543.81;4924441;28;49864;-65
2023/02/17 11:52:36;;;;;;;;;2.25;2.25;;;;;16.63;100.00;102476.78;4924146;28;50377;-68
2023/02/17 11:55:04;;;;;;;;;5.25;5.00;;;;;17.23;100.00;102566.63;4926351;28;49657;-64
2023/02/17 11:57:38;;;;;;;;;4.75;2.75;;;;;17.29;100.00;102557.91;4924576;28;49248;-65
2023/02/17 12:00:21;;;;;;;;;2.00;2.00;;;;;17.18;100.00;102533.78;4930716;28;49506;-67
2023/02/17 12:03:05;;;;;;;;;2.00;2.00;;;;;17.46;100.00;102553.81;4923104;28;50601;-67
2023/02/17 12:05:33;;;;;;;;;2.25;2.25;;;;;17.57;100.00;102544.34;4929096;28;49484;-67
2023/02/17 12:08:11;;;;;;;;;1.50;1.50;;;;;17.71;100.00;102542.88;4921878;28;50102;-75
2023/02/17 12:10:41;;;;;;;;;3.00;2.00;;;;;17.35;100.00;102449.19;4912242;28;49929;-69
2023/02/17 12:13:26;;;;;;;;;2.00;2.00;;;;;17.94;100.00;102521.16;4915449;28;50335;-72
2023/02/17 12:16:01;;;;;;;;;2.00;2.00;;;;;18.04;100.00;102523.13;4912588;28;49802;-68
2023/02/17 12:18:34;;;;;;;;;1.00;1.00;;;;;16.81;100.00;102330.47;4913314;28;49974;-72
2023/02/17 12:21:10;;;;;;;;;4.00;2.75;;;;;17.08;100.00;102316.84;4912563;28;50000;-75
2023/02/17 12:23:57;;;;;;;;;2.00;2.00;;;;;18.19;100.00;102515.44;4914876;28;50369;-76
2023/02/17 12:26:46;;;;;;;;;2.50;2.25;;;;;18.28;100.00;102520.91;4922969;28;49194;-74
2023/02/17 12:29:23;;;;;;;;;4.75;3.00;;;;;18.43;100.00;102520.28;4921048;28;49855;-76
2023/02/17 12:32:19;;;;;;;;;2.00;2.00;;;;;17.28;100.00;102312.81;4915044;28;49920;-68
2023/02/17 12:35:02;;;;;;;;;2.00;2.00;;;;;18.40;100.00;102471.44;4915753;28;50512;-67
2023/02/17 12:37:31;;;;;;;;;2.25;2.25;;;;;18.17;100.00;102418.81;4917022;28;49753;-68
2023/02/17 12:40:09;;;;;;;;;1.75;1.75;;;;;18.69;100.00;102526.03;4924026;28;49806;-65
2023/02/17 12:42:40;;;;;;;;;2.50;1.50;;;;;18.73;100.00;102513.69;4919976;28;49712;-66
2023/02/17 12:45:13;;;;;;;;;1.50;1.50;;;;;18.70;100.00;102509.19;4915135;28;49809;-65
2023/02/17 12:47:56;;;;;;;;;2.00;2.00;;;;;18.64;100.00;102510.84;4915172;28;49688;-65
2023/02/17 12:50:37;;;;;;;;;2.00;2.00;;;;;18.38;100.00;102465.22;4913572;28;49720;-65
2023/02/17 12:53:10;;;;;;;;;5.25;3.75;;;;;18.71;100.00;102510.97;4911297;28;49863;-66
2023/02/17 12:55:47;;;;;;;;;2.75;2.75;;;;;18.63;100.00;102504.63;4914984;28;50637;-67
2023/02/17 12:58:18;;;;;;;;;4.00;3.75;;;;;17.93;100.00;102391.84;4914895;28;49757;-65
2023/02/17 13:00:57;;;;;;;;;1.00;1.00;;;;;18.51;100.00;102477.81;4915204;28;49818;-65
2023/02/17 13:03:23;;;;;;;;;1.00;1.00;;;;;18.46;100.00;102474.22;4914564;28;49604;-66
2023/02/17 13:06:18;;;;;;;;;1.00;1.00;;;;;18.62;100.00;102512.56;4915290;28;51041;-67
2023/02/17 13:09:15;;;;;;;;;1.00;1.00;;;;;18.60;100.00;102505.47;4909975;28;49884;-66
2023/02/17 13:11:40;;;;;;;;;3.50;2.75;;;;;17.96;100.00;102399.88;4915533;28;49773;-66
2023/02/17 13:14:25;;;;;;;;;1.75;1.75;;;;;18.56;100.00;102506.28;4915398;28;49600;-65
2023/02/17 13:16:51;;;;;;;;;1.50;1.50;;;;;18.48;100.00;102470.69;4915271;28;50676;-66
2023/02/17 13:19:27;;;;;;;;;1.00;1.00;;;;;18.59;100.00;102468.19;4915295;28;50052;-67
2023/02/17 13:21:55;;;;;;;;;2.75;2.75;;;;;18.86;100.00;102523.63;4910934;28;49842;-67
2023/02/17 13:24:38;;;;;;;;;1.00;1.00;;;;;18.69;100.00;102485.22;4915333;28;49726;-67
2023/02/17 13:27:29;;;;;;;;;2.00;2.00;;;;;18.81;100.00;102512.88;4914939;28;51186;-65
2023/02/17 13:30:23;;;;;;;;;3.50;2.00;;;;;18.78;100.00;102512.84;4913160;28;49802;-67
2023/02/17 13:33:04;;;;;;;;;2.00;2.00;;;;;18.15;100.00;102435.63;4911006;28;50348;-67
2023/02/17 13:35:33;;;;;;;;;1.75;1.50;;;;;18.56;100.00;102500.09;4914821;28;49847;-65
2023/02/17 13:37:59;;;;;;;;;0.75;0.75;;;;;18.30;100.00;102475.72;4914110;28;49777;-65
2023/02/17 13:40:34;;;;;;;;;2.00;2.00;;;;;18.13;100.00;102451.50;4914105;28;49922;-65
2023/02/17 13:43:14;;;;;;;;;1.00;1.00;;;;;18.45;100.00;102518.53;4908610;28;49935;-65
2023/02/17 13:45:44;;;;;;;;;1.50;1.50;;;;;18.41;100.00;102532.63;4914197;28;49790;-64
2023/02/17 13:48:30;;;;;;;;;4.00;1.50;;;;;18.33;100.00;102509.44;4914148;28;50826;-65
2023/02/17 13:51:08;;;;;;;;;2.50;2.00;;;;;18.23;100.00;102511.94;4914843;28;49917;-65
2023/02/17 13:53:39;;;;;;;;;2.75;2.75;;;;;17.43;100.00;102383.84;4911775;28;50161;-70
2023/02/17 13:56:08;;;;;;;;;1.75;1.00;;;;;18.15;100.00;102512.69;4914184;28;50405;-67
2023/02/17 13:58:39;;;;;;;;;2.25;2.25;;;;;18.10;100.00;102533.88;4914229;28;49970;-69
2023/02/17 14:01:12;;;;;;;;;3.00;2.00;;;;;17.40;100.00;102405.03;4917137;28;49751;-69
2023/02/17 14:03:38;;;;;;;;;1.00;1.00;;;;;18.00;100.00;102513.31;4912747;28;49809;-71
2023/02/17 14:06:04;;;;;;;;;2.00;2.00;;;;;17.79;100.00;102479.28;4914737;28;49822;-72
2023/02/17 14:08:38;;;;;;;;;1.50;1.50;;;;;17.98;100.00;102496.44;4911115;28;51069;-64
2023/02/17 14:11:08;;;;;;;;;1.00;1.00;;;;;17.65;100.00;102439.13;4915886;28;49751;-67
2023/02/17 14:13:36;;;;;;;;;3.25;2.00;;;;;16.74;100.00;102278.19;4918579;28;49797;-66
2023/02/17 14:16:04;;;;;;;;;1.00;1.00;;;;;17.59;100.00;102443.47;4907507;28;51459;-68
2023/02/17 14:18:34;;;;;;;;;1.25;1.25;;;;;18.02;100.00;102504.50;4910295;28;50516;-67
2023/02/17 14:21:23;;;;;;;;;2.25;2.25;;;;;18.00;100.00;102502.69;4929791;28;50932;-67
2023/02/17 14:23:52;;;;;;;;;2.75;2.75;;;;;17.99;100.00;102500.91;4929698;28;49308;-67
2023/02/17 14:26:47;;;;;;;;;2.00;2.00;;;;;17.97;100.00;102505.28;4931708;28;49189;-67
2023/02/17 14:29:14;;;;;;;;;1.00;1.00;;;;;16.83;100.00;102300.47;4926564;28;49744;-67
2023/02/17 14:31:43;;;;;;;;;2.75;2.50;;;;;18.00;100.00;102500.91;4931733;28;49593;-68
2023/02/17 14:34:27;;;;;;;;;1.00;1.00;;;;;17.61;100.00;102428.44;4931854;28;49385;-67
2023/02/17 14:36:53;;;;;;;;;1.50;1.50;;;;;17.53;100.00;102411.47;4925778;28;49829;-67
2023/02/17 14:39:19;;;;;;;;;3.00;1.50;;;;;17.84;100.00;102460.75;4931035;28;50060;-68
2023/02/17 14:41:44;;;;;;;;;1.75;1.75;;;;;17.95;100.00;102483.09;4931663;28;49447;-66
2023/02/17 14:44:09;;;;;;;;;2.75;2.75;;;;;17.27;100.00;102371.16;4929217;28;49732;-67
2023/02/17 14:46:35;;;;;;;;;1.00;1.00;;;;;17.80;100.00;102449.19;4924877;28;49750;-69
2023/02/17 14:49:01;;;;;;;;;0.50;0.50;;;;;17.67;100.00;102441.84;4926167;28;51837;-69
2023/02/17 14:51:33;;;;;;;;;1.00;1.00;;;;;18.10;100.00;102512.59;4913578;28;49665;-70
2023/02/17 14:54:01;;;;;;;;;3.00;1.00;;;;;18.05;100.00;102506.34;4912126;28;49641;-73
2023/02/17 14:56:37;;;;;;;;;3.50;2.75;;;;;17.87;100.00;102479.44;4909021;28;49961;-68
2023/02/17 14:59:03;;;;;;;;;2.00;2.00;;;;;17.57;100.00;102426.59;4912196;28;50579;-67
2023/02/17 15:01:28;;;;;;;;;1.00;1.00;;;;;17.86;100.00;102486.50;4913773;28;49808;-73
2023/02/17 15:03:54;;;;;;;;;1.50;1.50;;;;;17.42;100.00;102419.22;4913994;28;49613;-69
2023/02/17 15:06:23;;;;;;;;;2.25;1.25;;;;;17.78;100.00;102473.94;4914162;28;49704;-70
2023/02/17 15:08:50;;;;;;;;;1.00;1.00;;;;;17.89;100.00;102490.97;4912678;28;50029;-72
2023/02/17 15:11:19;;;;;;;;;2.00;2.00;;;;;17.22;100.00;102386.13;4909694;28;50045;-72
2023/02/17 15:13:45;;;;;;;;;5.50;4.75;;;;;17.69;100.00;102480.88;4912314;28;49800;-72
2023/02/17 15:16:11;;;;;;;;;4.25;3.00;;;;;17.57;100.00;102471.75;4905673;28;49890;-72
2023/02/17 15:18:38;;;;;;;;;2.75;2.75;;;;;17.71;100.00;102489.75;4911288;28;50884;-72
2023/02/17 15:21:15;;;;;;;;;2.00;2.00;;;;;17.52;100.00;102466.34;4908153;28;49818;-71
2023/02/17 15:23:41;;;;;;;;;1.75;1.75;;;;;17.30;100.00;102430.53;4913376;28;49895;-72
2023/02/17 15:26:09;;;;;;;;;0.75;0.75;;;;;17.43;100.00;102445.81;4909684;28;50109;-69
2023/02/17 15:28:34;;;;;;;;;0.50;0.00;;;;;17.47;100.00;102460.06;4913091;28;51153;-70
2023/02/17 15:31:00;;;;;;;;;1.00;1.00;;;;;17.39;100.00;102456.34;4913176;28;49842;-70
2023/02/17 15:33:26;;;;;;;;;0.75;0.75;;;;;16.48;100.00;102325.31;4913438;28;49857;-69
2023/02/17 15:35:53;;;;;;;;;0.25;0.25;;;;;17.60;100.00;102522.25;4913560;28;49864;-72
2023/02/17 15:38:19;;;;;;;;;0.50;0.50;;;;;17.45;100.00;102483.00;4913245;28;49988;-82
2023/02/17 15:40:46;;;;;;;;;1.00;1.00;;;;;17.56;100.00;102513.31;4913225;28;49818;-72
2023/02/17 15:43:21;;;;;;;;;1.00;0.00;;;;;16.32;100.00;102310.88;4912823;28;50126;-72
2023/02/17 15:45:47;;;;;;;;;1.00;1.00;;;;;17.17;100.00;102452.34;4913547;28;49760;-73
2023/02/17 15:48:22;;;;;;;;;1.00;1.00;;;;;16.87;100.00;102397.78;4912654;28;49800;-73
2023/02/17 15:50:48;;;;;;;;;0.75;0.75;;;;;16.50;100.00;102373.97;4912894;28;49877;-70
2023/02/17 15:53:13;;;;;;;;;1.00;1.00;;;;;17.37;100.00;102473.97;4912535;28;49985;-69
2023/02/17 15:55:40;;;;;;;;;1.50;1.50;;;;;17.13;100.00;102446.09;4911626;28;49803;-69
2023/02/17 15:58:12;;;;;;;;;0.50;0.50;;;;;17.53;100.00;102518.56;4911943;28;49958;-69
2023/02/17 16:00:38;;;;;;;;;1.00;1.00;;;;;16.47;100.00;102343.00;4912595;28;49936;-69
2023/02/17 16:03:03;;;;;;;;;1.00;1.00;;;;;17.19;100.00;102468.34;4911466;28;49712;-69
2023/02/17 16:05:29;;;;;;;;;0.00;0.00;;;;;17.48;100.00;102525.56;4910656;28;49589;-71
2023/02/17 16:07:55;;;;;;;;;1.25;1.25;;;;;17.45;100.00;102538.75;4904617;28;50542;-72
2023/02/17 16:10:23;;;;;;;;;3.25;2.25;;;;;17.44;100.00;102540.53;4905532;28;50017;-75
2023/02/17 16:12:50;;;;;;;;;1.00;1.00;;;;;16.62;100.00;102410.47;4903239;28;49798;-71
2023/02/17 16:15:20;;;;;;;;;1.50;1.50;;;;;17.33;100.00;102552.69;4903598;28;50168;-72
2023/02/17 16:17:46;;;;;;;;;1.50;1.50;;;;;17.27;100.00;102547.22;4905711;28;50569;-70
2023/02/17 16:20:16;;;;;;;;;2.00;2.00;;;;;16.02;100.00;102374.66;4906404;28;49874;-69
2023/02/17 16:22:43;;;;;;;;;0.00;0.00;;;;;16.79;100.00;102486.00;4911331;28;49975;-69
2023/02/17 16:25:08;;;;;;;;;1.50;1.50;;;;;17.04;100.00;102559.09;4912948;28;49753;-69
2023/02/17 16:27:33;;;;;;;;;0.50;0.50;;;;;16.66;100.00;102482.16;4911938;28;50686;-70
2023/02/17 16:30:00;;;;;;;;;0.50;0.50;;;;;16.22;100.00;102417.50;4906158;28;49624;-69
2023/02/17 16:32:25;;;;;;;;;1.00;0.00;;;;;16.18;100.00;102418.28;4912853;28;50741;-70
2023/02/17 16:34:50;;;;;;;;;1.50;1.00;;;;;15.71;100.00;102357.97;4912759;28;49914;-70
2023/02/17 16:37:17;;;;;;;;;1.00;1.00;;;;;16.82;100.00;102560.38;4912737;28;49892;-70
2023/02/17 16:39:43;;;;;;;;;3.00;2.00;;;;;16.71;100.00;102522.09;4912615;28;49901;-69
2023/02/17 16:42:11;;;;;;;;;2.00;0.75;;;;;16.54;100.00;102503.09;4912060;28;49876;-69
2023/02/17 16:44:36;;;;;;;;;1.00;1.00;;;;;16.62;100.00;102533.34;4912538;28;49624;-69
2023/02/17 16:47:04;;;;;;;;;1.00;1.00;;;;;16.69;100.00;102537.03;4912143;28;49845;-69
2023/02/17 16:49:32;;;;;;;;;1.75;1.75;;;;;16.62;100.00;102545.72;4911589;28;49816;-69
2023/02/17 16:51:59;;;;;;;;;2.00;2.00;;;;;16.00;100.00;102445.22;4911887;28;49840;-69
2023/02/17 16:54:24;;;;;;;;;2.50;2.50;;;;;15.75;100.00;102422.53;4912560;28;49972;-69
2023/02/17 16:56:51;;;;;;;;;1.00;1.00;;;;;15.36;100.00;102382.63;4912030;28;49890;-68
2023/02/17 16:59:20;;;;;;;;;1.50;1.50;;;;;16.16;100.00;102504.78;4912250;28;49656;-73
2023/02/17 17:01:46;;;;;;;;;3.00;2.00;;;;;16.37;100.00;102546.84;4912706;28;49753;-69
2023/02/17 17:04:11;;;;;;;;;2.25;2.25;;;;;16.25;100.00;102531.53;4912542;28;49965;-69
2023/02/17 17:06:43;;;;;;;;;1.75;1.75;;;;;15.81;100.00;102466.78;4912258;28;50843;-70
2023/02/17 17:09:15;;;;;;;;;1.75;1.75;;;;;16.07;100.00;102524.00;4912396;28;49652;-69
2023/02/17 17:11:40;;;;;;;;;1.00;1.00;;;;;14.54;100.00;102278.06;4912121;28;49831;-69
2023/02/17 17:14:06;;;;;;;;;1.00;1.00;;;;;15.67;100.00;102479.66;4912044;28;49870;-71
2023/02/17 17:16:33;;;;;;;;;2.00;2.00;;;;;15.91;100.00;102537.66;4905739;28;50689;-69
2023/02/17 17:19:00;;;;;;;;;2.00;2.00;;;;;15.35;100.00;102447.00;4911126;28;50135;-68